sensor_id;sensor_type;location;lat;lon;timestamp;P1;durP1;ratioP1;P2;durP2;ratioP2
37937;SDS011;23763;48.130;11.602;2023-03-01T00:00:37;20.73;;;12.20;;
37937;SDS011;23763;48.130;11.602;2023-03-01T00:03:03;18.30;;;12.27;;
37937;SDS011;23763;48.130;11.602;2023-03-01T00:05:29;17.70;;;12.17;;
37937;SDS011;23763;48.130;11.602;2023-03-01T00:07:54;17.40;;;12.30;;
37937;SDS011;23763;48.130;11.602;2023-03-01T00:10:20;16.67;;;11.30;;
37937;SDS011;23763;48.130;11.602;2023-03-01T00:12:45;21.47;;;11.80;;
37937;SDS011;23763;48.130;11.602;2023-03-01T00:15:11;17.50;;;11.93;;
37937;SDS011;23763;48.130;11.602;2023-03-01T00:17:37;18.47;;;12.20;;
37937;SDS011;23763;48.130;11.602;2023-03-01T00:20:02;18.20;;;11.93;;
37937;SDS011;23763;48.130;11.602;2023-03-01T00:22:32;21.53;;;12.63;;
37937;SDS011;23763;48.130;11.602;2023-03-01T00:24:58;19.20;;;13.07;;
37937;SDS011;23763;48.130;11.602;2023-03-01T00:27:23;20.87;;;12.60;;
37937;SDS011;23763;48.130;11.602;2023-03-01T00:29:49;17.93;;;12.07;;
37937;SDS011;23763;48.130;11.602;2023-03-01T00:32:15;18.10;;;12.13;;
37937;SDS011;23763;48.130;11.602;2023-03-01T00:34:40;19.43;;;12.50;;
37937;SDS011;23763;48.130;11.602;2023-03-01T00:37:06;19.83;;;11.57;;
37937;SDS011;23763;48.130;11.602;2023-03-01T00:39:31;16.10;;;11.40;;
37937;SDS011;23763;48.130;11.602;2023-03-01T00:41:58;19.87;;;12.90;;
37937;SDS011;23763;48.130;11.602;2023-03-01T00:44:24;16.73;;;12.10;;
37937;SDS011;23763;48.130;11.602;2023-03-01T00:46:49;19.37;;;13.57;;
37937;SDS011;23763;48.130;11.602;2023-03-01T00:49:15;16.10;;;12.43;;
37937;SDS011;23763;48.130;11.602;2023-03-01T00:51:40;19.53;;;12.03;;
37937;SDS011;23763;48.130;11.602;2023-03-01T00:54:09;17.93;;;11.93;;
37937;SDS011;23763;48.130;11.602;2023-03-01T00:56:34;20.30;;;12.47;;
37937;SDS011;23763;48.130;11.602;2023-03-01T00:59:00;17.90;;;12.57;;
37937;SDS011;23763;48.130;11.602;2023-03-01T01:01:28;17.03;;;12.47;;
37937;SDS011;23763;48.130;11.602;2023-03-01T01:03:59;21.60;;;12.67;;
37937;SDS011;23763;48.130;11.602;2023-03-01T01:06:29;19.53;;;12.33;;
37937;SDS011;23763;48.130;11.602;2023-03-01T01:08:59;19.07;;;12.57;;
37937;SDS011;23763;48.130;11.602;2023-03-01T01:11:26;17.43;;;13.20;;
37937;SDS011;23763;48.130;11.602;2023-03-01T01:13:53;18.80;;;12.50;;
37937;SDS011;23763;48.130;11.602;2023-03-01T01:16:20;19.63;;;12.27;;
37937;SDS011;23763;48.130;11.602;2023-03-01T01:18:47;18.40;;;11.50;;
37937;SDS011;23763;48.130;11.602;2023-03-01T01:21:14;15.83;;;11.17;;
37937;SDS011;23763;48.130;11.602;2023-03-01T01:23:42;19.57;;;12.83;;
37937;SDS011;23763;48.130;11.602;2023-03-01T01:26:13;17.63;;;11.97;;
37937;SDS011;23763;48.130;11.602;2023-03-01T01:28:40;17.40;;;12.03;;
37937;SDS011;23763;48.130;11.602;2023-03-01T01:31:06;17.53;;;11.83;;
37937;SDS011;23763;48.130;11.602;2023-03-01T01:33:32;19.00;;;12.23;;
37937;SDS011;23763;48.130;11.602;2023-03-01T01:35:58;18.63;;;12.77;;
37937;SDS011;23763;48.130;11.602;2023-03-01T01:38:24;28.53;;;16.63;;
37937;SDS011;23763;48.130;11.602;2023-03-01T01:40:50;19.57;;;12.47;;
37937;SDS011;23763;48.130;11.602;2023-03-01T01:43:17;17.10;;;12.63;;
37937;SDS011;23763;48.130;11.602;2023-03-01T01:45:48;19.23;;;13.47;;
37937;SDS011;23763;48.130;11.602;2023-03-01T01:48:16;19.70;;;13.13;;
37937;SDS011;23763;48.130;11.602;2023-03-01T01:50:51;19.60;;;13.57;;
37937;SDS011;23763;48.130;11.602;2023-03-01T01:53:24;18.70;;;12.70;;
37937;SDS011;23763;48.130;11.602;2023-03-01T01:55:55;21.87;;;12.30;;
37937;SDS011;23763;48.130;11.602;2023-03-01T01:58:23;20.40;;;12.83;;
37937;SDS011;23763;48.130;11.602;2023-03-01T02:00:51;23.43;;;12.37;;
37937;SDS011;23763;48.130;11.602;2023-03-01T02:03:19;18.00;;;12.20;;
37937;SDS011;23763;48.130;11.602;2023-03-01T02:05:54;19.20;;;13.27;;
37937;SDS011;23763;48.130;11.602;2023-03-01T02:08:37;19.00;;;12.80;;
37937;SDS011;23763;48.130;11.602;2023-03-01T02:11:06;21.10;;;12.73;;
37937;SDS011;23763;48.130;11.602;2023-03-01T02:13:33;22.27;;;13.30;;
37937;SDS011;23763;48.130;11.602;2023-03-01T02:16:02;18.17;;;12.53;;
37937;SDS011;23763;48.130;11.602;2023-03-01T02:18:39;19.67;;;12.07;;
37937;SDS011;23763;48.130;11.602;2023-03-01T02:21:17;18.50;;;12.60;;
37937;SDS011;23763;48.130;11.602;2023-03-01T02:23:46;18.27;;;12.20;;
37937;SDS011;23763;48.130;11.602;2023-03-01T02:28:59;20.27;;;11.10;;
37937;SDS011;23763;48.130;11.602;2023-03-01T02:31:24;16.00;;;11.90;;
37937;SDS011;23763;48.130;11.602;2023-03-01T02:34:11;19.40;;;12.63;;
37937;SDS011;23763;48.130;11.602;2023-03-01T02:36:40;17.50;;;11.90;;
37937;SDS011;23763;48.130;11.602;2023-03-01T02:39:10;20.10;;;13.00;;
37937;SDS011;23763;48.130;11.602;2023-03-01T02:41:42;16.83;;;12.00;;
37937;SDS011;23763;48.130;11.602;2023-03-01T02:44:11;16.33;;;11.97;;
37937;SDS011;23763;48.130;11.602;2023-03-01T02:46:44;18.40;;;12.67;;
37937;SDS011;23763;48.130;11.602;2023-03-01T02:57:32;22.63;;;11.97;;
37937;SDS011;23763;48.130;11.602;2023-03-01T03:00:02;16.73;;;12.23;;
37937;SDS011;23763;48.130;11.602;2023-03-01T03:02:50;21.90;;;12.77;;
37937;SDS011;23763;48.130;11.602;2023-03-01T03:05:18;18.10;;;12.87;;
37937;SDS011;23763;48.130;11.602;2023-03-01T03:07:46;16.50;;;12.10;;
37937;SDS011;23763;48.130;11.602;2023-03-01T03:10:18;17.67;;;12.80;;
37937;SDS011;23763;48.130;11.602;2023-03-01T03:12:53;18.23;;;12.10;;
37937;SDS011;23763;48.130;11.602;2023-03-01T03:15:22;16.70;;;11.70;;
37937;SDS011;23763;48.130;11.602;2023-03-01T03:17:49;18.67;;;12.20;;
37937;SDS011;23763;48.130;11.602;2023-03-01T03:20:16;22.00;;;12.23;;
37937;SDS011;23763;48.130;11.602;2023-03-01T03:22:48;18.13;;;11.53;;
37937;SDS011;23763;48.130;11.602;2023-03-01T03:25:15;18.13;;;12.40;;
37937;SDS011;23763;48.130;11.602;2023-03-01T03:27:42;18.33;;;12.77;;
37937;SDS011;23763;48.130;11.602;2023-03-01T03:30:10;17.63;;;11.67;;
37937;SDS011;23763;48.130;11.602;2023-03-01T03:32:39;18.60;;;12.70;;
37937;SDS011;23763;48.130;11.602;2023-03-01T03:35:05;21.20;;;12.87;;
37937;SDS011;23763;48.130;11.602;2023-03-01T03:37:37;19.33;;;12.27;;
37937;SDS011;23763;48.130;11.602;2023-03-01T03:40:22;17.90;;;12.70;;
37937;SDS011;23763;48.130;11.602;2023-03-01T03:42:48;21.83;;;12.27;;
37937;SDS011;23763;48.130;11.602;2023-03-01T03:45:14;18.77;;;12.50;;
37937;SDS011;23763;48.130;11.602;2023-03-01T03:47:41;19.17;;;12.97;;
37937;SDS011;23763;48.130;11.602;2023-03-01T03:50:07;18.43;;;12.10;;
37937;SDS011;23763;48.130;11.602;2023-03-01T03:52:33;17.80;;;11.80;;
37937;SDS011;23763;48.130;11.602;2023-03-01T03:54:59;19.13;;;12.20;;
37937;SDS011;23763;48.130;11.602;2023-03-01T03:57:24;18.80;;;12.13;;
37937;SDS011;23763;48.130;11.602;2023-03-01T03:59:50;18.43;;;12.53;;
37937;SDS011;23763;48.130;11.602;2023-03-01T04:02:16;17.67;;;12.87;;
37937;SDS011;23763;48.130;11.602;2023-03-01T04:04:47;17.83;;;12.43;;
37937;SDS011;23763;48.130;11.602;2023-03-01T04:07:15;20.87;;;12.80;;
37937;SDS011;23763;48.130;11.602;2023-03-01T04:09:41;21.90;;;13.27;;
37937;SDS011;23763;48.130;11.602;2023-03-01T04:12:08;19.77;;;12.80;;
37937;SDS011;23763;48.130;11.602;2023-03-01T04:14:34;18.20;;;12.67;;
37937;SDS011;23763;48.130;11.602;2023-03-01T04:17:00;18.53;;;13.10;;
37937;SDS011;23763;48.130;11.602;2023-03-01T04:19:26;18.07;;;12.40;;
37937;SDS011;23763;48.130;11.602;2023-03-01T04:21:52;21.50;;;13.03;;
37937;SDS011;23763;48.130;11.602;2023-03-01T04:24:18;19.97;;;13.37;;
37937;SDS011;23763;48.130;11.602;2023-03-01T04:26:43;19.33;;;13.33;;
37937;SDS011;23763;48.130;11.602;2023-03-01T04:29:09;18.17;;;12.53;;
37937;SDS011;23763;48.130;11.602;2023-03-01T04:31:35;19.33;;;13.33;;
37937;SDS011;23763;48.130;11.602;2023-03-01T04:34:00;19.67;;;12.30;;
37937;SDS011;23763;48.130;11.602;2023-03-01T04:36:27;20.90;;;13.23;;
37937;SDS011;23763;48.130;11.602;2023-03-01T04:38:54;20.13;;;12.40;;
37937;SDS011;23763;48.130;11.602;2023-03-01T04:41:22;21.23;;;13.13;;
37937;SDS011;23763;48.130;11.602;2023-03-01T04:43:49;24.67;;;12.97;;
37937;SDS011;23763;48.130;11.602;2023-03-01T04:46:16;21.93;;;13.13;;
37937;SDS011;23763;48.130;11.602;2023-03-01T04:48:44;21.20;;;12.90;;
37937;SDS011;23763;48.130;11.602;2023-03-01T04:51:10;17.97;;;12.90;;
37937;SDS011;23763;48.130;11.602;2023-03-01T04:53:38;20.30;;;13.43;;
37937;SDS011;23763;48.130;11.602;2023-03-01T04:56:04;18.53;;;12.63;;
37937;SDS011;23763;48.130;11.602;2023-03-01T04:58:31;20.37;;;13.50;;
37937;SDS011;23763;48.130;11.602;2023-03-01T05:00:56;19.30;;;12.77;;
37937;SDS011;23763;48.130;11.602;2023-03-01T05:03:22;21.03;;;13.47;;
37937;SDS011;23763;48.130;11.602;2023-03-01T05:05:48;16.13;;;11.97;;
37937;SDS011;23763;48.130;11.602;2023-03-01T05:08:16;18.00;;;13.03;;
37937;SDS011;23763;48.130;11.602;2023-03-01T05:10:48;19.23;;;13.17;;
37937;SDS011;23763;48.130;11.602;2023-03-01T05:13:18;20.07;;;12.73;;
37937;SDS011;23763;48.130;11.602;2023-03-01T05:15:54;17.40;;;12.03;;
37937;SDS011;23763;48.130;11.602;2023-03-01T05:18:22;20.20;;;13.13;;
37937;SDS011;23763;48.130;11.602;2023-03-01T05:20:54;21.47;;;12.93;;
37937;SDS011;23763;48.130;11.602;2023-03-01T05:23:23;19.20;;;12.90;;
37937;SDS011;23763;48.130;11.602;2023-03-01T05:25:50;20.47;;;12.10;;
37937;SDS011;23763;48.130;11.602;2023-03-01T05:28:17;22.23;;;12.97;;
37937;SDS011;23763;48.130;11.602;2023-03-01T05:30:43;21.90;;;12.97;;
37937;SDS011;23763;48.130;11.602;2023-03-01T05:33:08;19.87;;;12.73;;
37937;SDS011;23763;48.130;11.602;2023-03-01T05:35:42;18.40;;;12.10;;
37937;SDS011;23763;48.130;11.602;2023-03-01T05:38:09;21.70;;;14.00;;
37937;SDS011;23763;48.130;11.602;2023-03-01T05:40:38;19.13;;;12.20;;
37937;SDS011;23763;48.130;11.602;2023-03-01T05:43:04;20.63;;;12.73;;
37937;SDS011;23763;48.130;11.602;2023-03-01T05:45:30;18.67;;;12.83;;
37937;SDS011;23763;48.130;11.602;2023-03-01T05:47:57;19.43;;;13.50;;
37937;SDS011;23763;48.130;11.602;2023-03-01T05:50:28;18.23;;;13.27;;
37937;SDS011;23763;48.130;11.602;2023-03-01T05:52:59;20.47;;;12.53;;
37937;SDS011;23763;48.130;11.602;2023-03-01T05:55:27;19.63;;;12.83;;
37937;SDS011;23763;48.130;11.602;2023-03-01T05:57:54;18.87;;;12.03;;
37937;SDS011;23763;48.130;11.602;2023-03-01T06:00:20;20.30;;;13.40;;
37937;SDS011;23763;48.130;11.602;2023-03-01T06:02:49;20.93;;;13.67;;
37937;SDS011;23763;48.130;11.602;2023-03-01T06:05:17;21.70;;;13.30;;
37937;SDS011;23763;48.130;11.602;2023-03-01T06:07:42;20.10;;;13.50;;
37937;SDS011;23763;48.130;11.602;2023-03-01T06:10:09;20.50;;;13.83;;
37937;SDS011;23763;48.130;11.602;2023-03-01T06:12:37;18.87;;;12.37;;
37937;SDS011;23763;48.130;11.602;2023-03-01T06:15:04;21.77;;;12.47;;
37937;SDS011;23763;48.130;11.602;2023-03-01T06:17:31;21.13;;;12.77;;
37937;SDS011;23763;48.130;11.602;2023-03-01T06:20:07;24.53;;;15.10;;
37937;SDS011;23763;48.130;11.602;2023-03-01T06:22:52;22.37;;;13.73;;
37937;SDS011;23763;48.130;11.602;2023-03-01T06:25:19;23.37;;;13.63;;
37937;SDS011;23763;48.130;11.602;2023-03-01T06:27:46;21.53;;;13.27;;
37937;SDS011;23763;48.130;11.602;2023-03-01T06:30:14;21.33;;;13.03;;
37937;SDS011;23763;48.130;11.602;2023-03-01T06:32:41;21.80;;;13.70;;
37937;SDS011;23763;48.130;11.602;2023-03-01T06:35:08;23.43;;;13.13;;
37937;SDS011;23763;48.130;11.602;2023-03-01T06:37:35;22.17;;;13.10;;
37937;SDS011;23763;48.130;11.602;2023-03-01T06:40:02;21.93;;;13.87;;
37937;SDS011;23763;48.130;11.602;2023-03-01T06:42:35;21.00;;;12.70;;
37937;SDS011;23763;48.130;11.602;2023-03-01T06:45:01;22.50;;;13.97;;
37937;SDS011;23763;48.130;11.602;2023-03-01T06:47:28;22.47;;;13.27;;
37937;SDS011;23763;48.130;11.602;2023-03-01T06:49:53;21.77;;;14.27;;
37937;SDS011;23763;48.130;11.602;2023-03-01T06:52:19;21.97;;;14.17;;
37937;SDS011;23763;48.130;11.602;2023-03-01T06:54:44;22.53;;;12.80;;
37937;SDS011;23763;48.130;11.602;2023-03-01T06:57:10;23.83;;;14.00;;
37937;SDS011;23763;48.130;11.602;2023-03-01T06:59:35;24.43;;;14.53;;
37937;SDS011;23763;48.130;11.602;2023-03-01T07:02:01;21.77;;;12.90;;
37937;SDS011;23763;48.130;11.602;2023-03-01T07:04:27;19.43;;;13.83;;
37937;SDS011;23763;48.130;11.602;2023-03-01T07:06:54;26.73;;;14.90;;
37937;SDS011;23763;48.130;11.602;2023-03-01T07:09:20;24.70;;;13.67;;
37937;SDS011;23763;48.130;11.602;2023-03-01T07:11:49;21.23;;;13.90;;
37937;SDS011;23763;48.130;11.602;2023-03-01T07:14:15;19.90;;;13.37;;
37937;SDS011;23763;48.130;11.602;2023-03-01T07:16:41;22.40;;;13.63;;
37937;SDS011;23763;48.130;11.602;2023-03-01T07:19:07;19.63;;;13.40;;
37937;SDS011;23763;48.130;11.602;2023-03-01T07:21:32;27.63;;;13.67;;
37937;SDS011;23763;48.130;11.602;2023-03-01T07:23:58;20.87;;;13.70;;
37937;SDS011;23763;48.130;11.602;2023-03-01T07:26:23;22.43;;;14.00;;
37937;SDS011;23763;48.130;11.602;2023-03-01T07:28:49;23.97;;;14.23;;
37937;SDS011;23763;48.130;11.602;2023-03-01T07:31:14;30.53;;;14.73;;
37937;SDS011;23763;48.130;11.602;2023-03-01T07:33:40;25.50;;;13.97;;
37937;SDS011;23763;48.130;11.602;2023-03-01T07:36:06;20.17;;;14.43;;
37937;SDS011;23763;48.130;11.602;2023-03-01T07:38:32;26.43;;;14.50;;
37937;SDS011;23763;48.130;11.602;2023-03-01T07:41:02;23.80;;;14.87;;
37937;SDS011;23763;48.130;11.602;2023-03-01T07:43:29;26.73;;;16.13;;
37937;SDS011;23763;48.130;11.602;2023-03-01T07:45:57;24.67;;;15.07;;
37937;SDS011;23763;48.130;11.602;2023-03-01T07:48:25;23.80;;;14.47;;
37937;SDS011;23763;48.130;11.602;2023-03-01T07:50:50;25.73;;;14.73;;
37937;SDS011;23763;48.130;11.602;2023-03-01T07:53:16;23.73;;;14.37;;
37937;SDS011;23763;48.130;11.602;2023-03-01T07:55:42;25.73;;;14.47;;
37937;SDS011;23763;48.130;11.602;2023-03-01T07:58:07;23.37;;;13.90;;
37937;SDS011;23763;48.130;11.602;2023-03-01T08:00:33;22.93;;;15.20;;
37937;SDS011;23763;48.130;11.602;2023-03-01T08:02:59;30.70;;;15.80;;
37937;SDS011;23763;48.130;11.602;2023-03-01T08:05:26;23.03;;;13.63;;
37937;SDS011;23763;48.130;11.602;2023-03-01T08:07:52;25.47;;;15.20;;
37937;SDS011;23763;48.130;11.602;2023-03-01T08:10:18;23.67;;;15.10;;
37937;SDS011;23763;48.130;11.602;2023-03-01T08:12:44;27.80;;;15.30;;
37937;SDS011;23763;48.130;11.602;2023-03-01T08:15:10;21.53;;;14.90;;
37937;SDS011;23763;48.130;11.602;2023-03-01T08:17:37;21.33;;;14.40;;
37937;SDS011;23763;48.130;11.602;2023-03-01T08:20:03;54.27;;;24.73;;
37937;SDS011;23763;48.130;11.602;2023-03-01T08:22:32;25.07;;;14.53;;
37937;SDS011;23763;48.130;11.602;2023-03-01T08:24:57;25.07;;;14.83;;
37937;SDS011;23763;48.130;11.602;2023-03-01T08:27:23;23.67;;;14.47;;
37937;SDS011;23763;48.130;11.602;2023-03-01T08:29:48;25.30;;;15.60;;
37937;SDS011;23763;48.130;11.602;2023-03-01T08:32:14;21.17;;;14.30;;
37937;SDS011;23763;48.130;11.602;2023-03-01T08:34:39;22.67;;;14.03;;
37937;SDS011;23763;48.130;11.602;2023-03-01T08:37:06;24.23;;;14.50;;
37937;SDS011;23763;48.130;11.602;2023-03-01T08:39:31;24.73;;;15.97;;
37937;SDS011;23763;48.130;11.602;2023-03-01T08:41:57;24.17;;;15.50;;
37937;SDS011;23763;48.130;11.602;2023-03-01T08:44:22;24.87;;;15.87;;
37937;SDS011;23763;48.130;11.602;2023-03-01T08:46:49;28.20;;;15.07;;
37937;SDS011;23763;48.130;11.602;2023-03-01T08:49:17;25.93;;;15.47;;
37937;SDS011;23763;48.130;11.602;2023-03-01T08:51:45;22.30;;;14.60;;
37937;SDS011;23763;48.130;11.602;2023-03-01T08:54:15;33.40;;;17.47;;
37937;SDS011;23763;48.130;11.602;2023-03-01T08:56:43;25.07;;;15.60;;
37937;SDS011;23763;48.130;11.602;2023-03-01T08:59:10;27.57;;;15.77;;
37937;SDS011;23763;48.130;11.602;2023-03-01T09:01:36;24.53;;;14.57;;
37937;SDS011;23763;48.130;11.602;2023-03-01T09:04:02;23.63;;;15.37;;
37937;SDS011;23763;48.130;11.602;2023-03-01T09:06:30;26.10;;;15.27;;
37937;SDS011;23763;48.130;11.602;2023-03-01T09:08:57;26.80;;;14.90;;
37937;SDS011;23763;48.130;11.602;2023-03-01T09:11:23;22.70;;;15.00;;
37937;SDS011;23763;48.130;11.602;2023-03-01T09:13:49;22.60;;;14.40;;
37937;SDS011;23763;48.130;11.602;2023-03-01T09:16:16;20.80;;;14.93;;
37937;SDS011;23763;48.130;11.602;2023-03-01T09:18:44;24.03;;;15.47;;
37937;SDS011;23763;48.130;11.602;2023-03-01T09:21:11;22.30;;;15.50;;
37937;SDS011;23763;48.130;11.602;2023-03-01T09:23:40;23.77;;;15.10;;
37937;SDS011;23763;48.130;11.602;2023-03-01T09:26:09;21.33;;;13.70;;
37937;SDS011;23763;48.130;11.602;2023-03-01T09:28:41;24.43;;;15.03;;
37937;SDS011;23763;48.130;11.602;2023-03-01T09:31:07;20.63;;;14.43;;
37937;SDS011;23763;48.130;11.602;2023-03-01T09:33:33;24.10;;;15.03;;
37937;SDS011;23763;48.130;11.602;2023-03-01T09:36:03;23.77;;;15.47;;
37937;SDS011;23763;48.130;11.602;2023-03-01T09:38:30;26.47;;;15.90;;
37937;SDS011;23763;48.130;11.602;2023-03-01T09:40:56;24.30;;;15.23;;
37937;SDS011;23763;48.130;11.602;2023-03-01T09:43:27;24.50;;;14.93;;
37937;SDS011;23763;48.130;11.602;2023-03-01T09:46:09;24.73;;;14.93;;
37937;SDS011;23763;48.130;11.602;2023-03-01T09:48:41;22.83;;;14.53;;
37937;SDS011;23763;48.130;11.602;2023-03-01T09:51:15;23.30;;;15.33;;
37937;SDS011;23763;48.130;11.602;2023-03-01T09:53:44;22.63;;;15.50;;
37937;SDS011;23763;48.130;11.602;2023-03-01T09:56:28;20.73;;;14.60;;
37937;SDS011;23763;48.130;11.602;2023-03-01T10:04:46;24.17;;;15.40;;
37937;SDS011;23763;48.130;11.602;2023-03-01T10:09:48;29.07;;;15.57;;
37937;SDS011;23763;48.130;11.602;2023-03-01T10:12:15;27.63;;;15.47;;
37937;SDS011;23763;48.130;11.602;2023-03-01T10:17:38;23.93;;;15.10;;
37937;SDS011;23763;48.130;11.602;2023-03-01T10:20:33;23.63;;;15.20;;
37937;SDS011;23763;48.130;11.602;2023-03-01T10:23:08;24.47;;;15.50;;
37937;SDS011;23763;48.130;11.602;2023-03-01T10:28:25;25.20;;;15.77;;
37937;SDS011;23763;48.130;11.602;2023-03-01T10:30:56;28.20;;;17.67;;
37937;SDS011;23763;48.130;11.602;2023-03-01T10:33:25;26.73;;;17.27;;
37937;SDS011;23763;48.130;11.602;2023-03-01T10:35:54;22.63;;;15.50;;
37937;SDS011;23763;48.130;11.602;2023-03-01T10:41:54;25.87;;;15.57;;
37937;SDS011;23763;48.130;11.602;2023-03-01T10:44:35;37.70;;;20.47;;
37937;SDS011;23763;48.130;11.602;2023-03-01T10:50:28;24.60;;;15.57;;
37937;SDS011;23763;48.130;11.602;2023-03-01T10:53:16;35.27;;;21.07;;
37937;SDS011;23763;48.130;11.602;2023-03-01T10:56:11;25.03;;;15.40;;
37937;SDS011;23763;48.130;11.602;2023-03-01T10:58:40;27.10;;;16.50;;
37937;SDS011;23763;48.130;11.602;2023-03-01T11:06:30;25.97;;;15.93;;
37937;SDS011;23763;48.130;11.602;2023-03-01T11:08:55;25.73;;;17.20;;
37937;SDS011;23763;48.130;11.602;2023-03-01T11:16:58;28.20;;;17.33;;
37937;SDS011;23763;48.130;11.602;2023-03-01T11:19:24;24.63;;;16.13;;
37937;SDS011;23763;48.130;11.602;2023-03-01T11:24:30;24.37;;;17.13;;
37937;SDS011;23763;48.130;11.602;2023-03-01T11:27:04;25.63;;;15.97;;
37937;SDS011;23763;48.130;11.602;2023-03-01T11:30:27;29.40;;;18.93;;
37937;SDS011;23763;48.130;11.602;2023-03-01T11:35:34;28.83;;;16.80;;
37937;SDS011;23763;48.130;11.602;2023-03-01T11:38:13;28.47;;;16.93;;
37937;SDS011;23763;48.130;11.602;2023-03-01T12:00:30;27.10;;;17.00;;
37937;SDS011;23763;48.130;11.602;2023-03-01T12:03:13;25.13;;;16.93;;
37937;SDS011;23763;48.130;11.602;2023-03-01T12:09:00;26.13;;;16.67;;
37937;SDS011;23763;48.130;11.602;2023-03-01T12:12:08;24.70;;;16.40;;
37937;SDS011;23763;48.130;11.602;2023-03-01T12:17:50;25.10;;;17.30;;
37937;SDS011;23763;48.130;11.602;2023-03-01T12:42:27;23.37;;;15.83;;
37937;SDS011;23763;48.130;11.602;2023-03-01T12:50:51;24.80;;;16.83;;
37937;SDS011;23763;48.130;11.602;2023-03-01T12:55:46;25.47;;;17.13;;
37937;SDS011;23763;48.130;11.602;2023-03-01T12:58:24;29.10;;;17.50;;
37937;SDS011;23763;48.130;11.602;2023-03-01T13:06:55;24.63;;;16.20;;
37937;SDS011;23763;48.130;11.602;2023-03-01T13:13:00;24.63;;;16.70;;
37937;SDS011;23763;48.130;11.602;2023-03-01T13:15:32;33.00;;;16.87;;
37937;SDS011;23763;48.130;11.602;2023-03-01T13:18:00;29.10;;;16.43;;
37937;SDS011;23763;48.130;11.602;2023-03-01T13:20:52;24.00;;;16.87;;
37937;SDS011;23763;48.130;11.602;2023-03-01T13:28:50;27.43;;;17.27;;
37937;SDS011;23763;48.130;11.602;2023-03-01T13:33:49;24.87;;;17.37;;
37937;SDS011;23763;48.130;11.602;2023-03-01T13:44:17;24.87;;;17.20;;
37937;SDS011;23763;48.130;11.602;2023-03-01T13:46:49;28.33;;;17.77;;
37937;SDS011;23763;48.130;11.602;2023-03-01T13:49:18;24.33;;;16.80;;
37937;SDS011;23763;48.130;11.602;2023-03-01T13:51:49;24.10;;;17.03;;
37937;SDS011;23763;48.130;11.602;2023-03-01T13:54:16;23.77;;;17.30;;
37937;SDS011;23763;48.130;11.602;2023-03-01T13:56:50;27.00;;;17.37;;
37937;SDS011;23763;48.130;11.602;2023-03-01T13:59:17;24.23;;;17.00;;
37937;SDS011;23763;48.130;11.602;2023-03-01T14:01:51;24.60;;;17.17;;
37937;SDS011;23763;48.130;11.602;2023-03-01T14:04:39;31.17;;;16.90;;
37937;SDS011;23763;48.130;11.602;2023-03-01T14:07:38;23.60;;;16.30;;
37937;SDS011;23763;48.130;11.602;2023-03-01T14:10:03;24.23;;;17.93;;
37937;SDS011;23763;48.130;11.602;2023-03-01T14:20:27;30.13;;;17.87;;
37937;SDS011;23763;48.130;11.602;2023-03-01T14:22:56;25.97;;;17.80;;
37937;SDS011;23763;48.130;11.602;2023-03-01T14:25:31;26.53;;;17.73;;
37937;SDS011;23763;48.130;11.602;2023-03-01T14:28:16;29.67;;;17.10;;
37937;SDS011;23763;48.130;11.602;2023-03-01T14:30:45;27.70;;;16.93;;
37937;SDS011;23763;48.130;11.602;2023-03-01T14:38:31;26.63;;;17.00;;
37937;SDS011;23763;48.130;11.602;2023-03-01T14:41:01;28.47;;;16.77;;
37937;SDS011;23763;48.130;11.602;2023-03-01T14:43:49;23.27;;;16.23;;
37937;SDS011;23763;48.130;11.602;2023-03-01T14:46:22;24.40;;;16.10;;
37937;SDS011;23763;48.130;11.602;2023-03-01T14:48:52;26.23;;;17.23;;
37937;SDS011;23763;48.130;11.602;2023-03-01T14:51:20;41.37;;;24.43;;
37937;SDS011;23763;48.130;11.602;2023-03-01T14:53:46;28.33;;;17.73;;
37937;SDS011;23763;48.130;11.602;2023-03-01T14:56:13;22.67;;;16.27;;
37937;SDS011;23763;48.130;11.602;2023-03-01T14:58:44;25.47;;;15.43;;
37937;SDS011;23763;48.130;11.602;2023-03-01T15:01:16;22.92;;;15.40;;
37937;SDS011;23763;48.130;11.602;2023-03-01T15:03:44;23.37;;;15.63;;
37937;SDS011;23763;48.130;11.602;2023-03-01T15:06:14;30.23;;;19.50;;
37937;SDS011;23763;48.130;11.602;2023-03-01T15:08:45;21.20;;;15.15;;
37937;SDS011;23763;48.130;11.602;2023-03-01T15:13:42;22.43;;;14.40;;
37937;SDS011;23763;48.130;11.602;2023-03-01T15:16:12;22.57;;;15.13;;
37937;SDS011;23763;48.130;11.602;2023-03-01T15:18:45;27.52;;;16.65;;
37937;SDS011;23763;48.130;11.602;2023-03-01T15:23:54;22.40;;;15.70;;
37937;SDS011;23763;48.130;11.602;2023-03-01T15:26:27;24.33;;;16.13;;
37937;SDS011;23763;48.130;11.602;2023-03-01T15:29:05;28.20;;;15.77;;
37937;SDS011;23763;48.130;11.602;2023-03-01T15:32:04;25.67;;;15.87;;
37937;SDS011;23763;48.130;11.602;2023-03-01T15:34:50;27.47;;;17.10;;
37937;SDS011;23763;48.130;11.602;2023-03-01T15:40:48;23.00;;;14.77;;
37937;SDS011;23763;48.130;11.602;2023-03-01T15:43:04;24.30;;;14.88;;
37937;SDS011;23763;48.130;11.602;2023-03-01T15:45:36;25.00;;;17.47;;
37937;SDS011;23763;48.130;11.602;2023-03-01T15:48:17;25.03;;;15.10;;
37937;SDS011;23763;48.130;11.602;2023-03-01T15:50:58;30.70;;;15.77;;
37937;SDS011;23763;48.130;11.602;2023-03-01T15:53:25;25.40;;;15.63;;
37937;SDS011;23763;48.130;11.602;2023-03-01T15:55:53;21.90;;;14.48;;
37937;SDS011;23763;48.130;11.602;2023-03-01T15:58:24;21.77;;;14.33;;
37937;SDS011;23763;48.130;11.602;2023-03-01T16:00:50;20.10;;;14.27;;
37937;SDS011;23763;48.130;11.602;2023-03-01T16:03:21;22.50;;;13.47;;
37937;SDS011;23763;48.130;11.602;2023-03-01T16:05:48;21.47;;;14.43;;
37937;SDS011;23763;48.130;11.602;2023-03-01T16:08:15;26.00;;;15.13;;
37937;SDS011;23763;48.130;11.602;2023-03-01T16:10:41;21.27;;;14.40;;
37937;SDS011;23763;48.130;11.602;2023-03-01T16:13:08;23.77;;;14.73;;
37937;SDS011;23763;48.130;11.602;2023-03-01T16:15:39;23.83;;;13.40;;
37937;SDS011;23763;48.130;11.602;2023-03-01T16:18:05;23.97;;;13.93;;
37937;SDS011;23763;48.130;11.602;2023-03-01T16:20:32;20.87;;;13.50;;
37937;SDS011;23763;48.130;11.602;2023-03-01T16:22:59;24.03;;;14.23;;
37937;SDS011;23763;48.130;11.602;2023-03-01T16:25:26;19.90;;;12.93;;
37937;SDS011;23763;48.130;11.602;2023-03-01T16:27:52;20.07;;;14.20;;
37937;SDS011;23763;48.130;11.602;2023-03-01T16:30:18;20.23;;;13.13;;
37937;SDS011;23763;48.130;11.602;2023-03-01T16:32:46;15.83;;;11.83;;
37937;SDS011;23763;48.130;11.602;2023-03-01T16:35:13;18.77;;;13.20;;
37937;SDS011;23763;48.130;11.602;2023-03-01T16:37:41;21.60;;;13.47;;
37937;SDS011;23763;48.130;11.602;2023-03-01T16:40:16;26.07;;;14.10;;
37937;SDS011;23763;48.130;11.602;2023-03-01T16:42:49;19.97;;;12.83;;
37937;SDS011;23763;48.130;11.602;2023-03-01T16:45:15;18.80;;;12.97;;
37937;SDS011;23763;48.130;11.602;2023-03-01T16:47:41;24.83;;;13.13;;
37937;SDS011;23763;48.130;11.602;2023-03-01T16:50:08;19.40;;;13.77;;
37937;SDS011;23763;48.130;11.602;2023-03-01T16:52:34;19.37;;;12.37;;